Time;durP1;ratioP1;P1;durP2;ratioP2;P2;SDS_P1;SDS_P2;PMS_P1;PMS_P2;Temp;Humidity;BMP_temperature;BMP_pressure;BME280_temperature;BME280_humidity;BME280_pressure;Samples;Min_cycle;Max_cycle;Signal;HPM_P1;HPM_P2
2022/12/25 00:01:08;;;;;;;314.08;61.03;;;6.40;99.90;;;;;;5075470;28;20050;-87
2022/12/25 00:03:56;;;;;;;405.52;71.38;;;6.30;99.90;;;;;;5091188;28;20515;-79
2022/12/25 00:06:42;;;;;;;403.10;71.35;;;6.30;99.90;;;;;;5071679;28;20508;-79
2022/12/25 00:09:28;;;;;;;340.27;60.33;;;6.20;99.90;;;;;;5089763;28;20100;-78
2022/12/25 00:12:15;;;;;;;400.90;75.13;;;6.20;99.90;;;;;;5089402;28;20140;-78
2022/12/25 00:15:01;;;;;;;291.00;60.65;;;6.10;99.90;;;;;;5090130;28;20032;-86
2022/12/25 00:17:47;;;;;;;200.23;47.25;;;6.10;99.90;;;;;;5073330;28;20044;-85
2022/12/25 00:20:35;;;;;;;228.90;50.33;;;6.00;99.90;;;;;;5092967;28;20051;-82
2022/12/25 00:23:21;;;;;;;261.58;59.78;;;6.00;99.90;;;;;;5089075;28;20047;-83
2022/12/25 00:26:14;;;;;;;328.45;63.55;;;6.00;99.90;;;;;;5090055;28;20055;-77
2022/12/25 00:29:00;;;;;;;261.02;61.22;;;6.00;99.90;;;;;;5090232;28;20048;-83
2022/12/25 00:31:46;;;;;;;180.68;48.33;;;5.90;99.90;;;;;;5072758;28;20040;-84
2022/12/25 00:34:32;;;;;;;131.00;39.90;;;5.90;99.90;;;;;;5079969;28;20048;-79
2022/12/25 00:37:18;;;;;;;131.20;40.35;;;5.80;99.90;;;;;;5063288;28;20048;-75
2022/12/25 00:40:06;;;;;;;136.55;40.97;;;5.80;99.90;;;;;;5080789;28;20051;-75
2022/12/25 00:42:52;;;;;;;139.48;41.33;;;5.80;99.90;;;;;;5080607;28;20469;-80
2022/12/25 00:45:38;;;;;;;116.03;37.72;;;5.80;99.90;;;;;;5078506;28;20052;-78
2022/12/25 00:48:24;;;;;;;130.73;37.08;;;5.80;99.90;;;;;;5093381;28;20070;-84
2022/12/25 00:51:11;;;;;;;111.20;35.97;;;5.80;99.90;;;;;;5082194;28;20047;-77
2022/12/25 00:53:57;;;;;;;129.50;36.63;;;5.70;99.90;;;;;;5074231;28;20574;-80
2022/12/25 00:56:43;;;;;;;119.65;33.88;;;5.70;99.90;;;;;;5093157;28;20121;-82
2022/12/25 00:59:31;;;;;;;124.13;36.05;;;5.70;99.90;;;;;;5074169;28;20047;-81
2022/12/25 01:02:24;;;;;;;122.70;34.42;;;5.60;99.90;;;;;;5074786;28;20240;-78
2022/12/25 01:05:10;;;;;;;107.05;32.97;;;5.50;99.90;;;;;;5092291;28;20062;-85
2022/12/25 01:07:56;;;;;;;113.65;32.00;;;5.50;99.90;;;;;;5098885;28;20064;-83
2022/12/25 01:10:42;;;;;;;130.05;36.78;;;5.40;99.90;;;;;;5062700;28;20511;-80
2022/12/25 01:13:30;;;;;;;111.50;33.33;;;5.40;99.90;;;;;;5074765;28;20059;-78
2022/12/25 01:16:16;;;;;;;117.30;33.58;;;5.40;99.90;;;;;;5061365;28;20062;-77
2022/12/25 01:19:03;;;;;;;107.35;32.70;;;5.30;99.90;;;;;;5073981;28;20056;-77
2022/12/25 01:21:49;;;;;;;121.35;33.55;;;5.30;99.90;;;;;;5080509;28;20044;-80
2022/12/25 01:24:35;;;;;;;105.15;31.15;;;5.30;99.90;;;;;;5098567;28;20518;-83
2022/12/25 01:27:21;;;;;;;114.85;32.60;;;5.30;99.90;;;;;;5077051;28;20080;-86
2022/12/25 01:30:08;;;;;;;94.63;29.90;;;5.30;99.90;;;;;;5095265;28;20056;-81
2022/12/25 01:32:54;;;;;;;99.78;30.98;;;5.30;99.90;;;;;;5074311;28;20048;-79
2022/12/25 01:35:41;;;;;;;108.05;34.28;;;5.30;99.90;;;;;;5092913;28;20062;-83
2022/12/25 01:38:27;;;;;;;112.70;33.38;;;5.30;99.90;;;;;;5075142;28;20055;-87
2022/12/25 01:41:14;;;;;;;111.55;33.97;;;5.30;99.90;;;;;;5078345;28;20399;-78
2022/12/25 01:44:14;;;;;;;122.85;33.55;;;5.30;99.90;;;;;;5074888;28;20702;-87
2022/12/25 01:47:04;;;;;;;118.38;32.72;;;5.30;99.90;;;;;;5080600;28;20403;-79
2022/12/25 01:49:51;;;;;;;129.73;34.20;;;5.30;99.90;;;;;;5077262;28;20055;-79
2022/12/25 01:52:37;;;;;;;118.85;36.58;;;5.30;99.90;;;;;;5073892;28;20052;-79
2022/12/25 01:55:24;;;;;;;117.20;36.70;;;5.40;99.90;;;;;;5074031;28;20048;-77
2022/12/25 01:58:10;;;;;;;127.50;37.35;;;5.50;99.90;;;;;;5076097;28;20139;-83
2022/12/25 02:00:57;;;;;;;169.82;42.35;;;5.60;99.90;;;;;;5071032;28;20048;-82
2022/12/25 02:03:43;;;;;;;162.85;41.28;;;5.70;99.90;;;;;;5098456;28;20051;-80
2022/12/25 02:06:30;;;;;;;190.10;47.78;;;5.80;99.90;;;;;;5074193;28;20059;-78
2022/12/25 02:09:17;;;;;;;221.13;50.97;;;5.80;99.90;;;;;;5091338;28;20051;-83
2022/12/25 02:12:05;;;;;;;247.68;53.78;;;5.80;99.90;;;;;;5073579;28;20554;-82
2022/12/25 02:14:54;;;;;;;213.23;50.22;;;5.90;99.90;;;;;;5091640;28;20048;-79
2022/12/25 02:18:01;;;;;;;240.00;52.78;;;5.90;99.90;;;;;;5090346;28;20403;-77
2022/12/25 02:21:29;;;;;;;246.40;56.05;;;5.90;99.90;;;;;;5076135;28;20049;-85
2022/12/25 02:24:27;;;;;;;263.70;56.38;;;6.00;99.90;;;;;;5070638;28;20056;-85
2022/12/25 02:27:28;;;;;;;254.60;53.15;;;6.00;99.90;;;;;;5052222;28;20174;-86
2022/12/25 02:30:15;;;;;;;260.23;55.20;;;6.00;99.90;;;;;;5070852;28;20106;-85
2022/12/25 02:36:20;;;;;;;244.70;57.83;;;6.10;99.90;;;;;;5084622;28;20048;-81
2022/12/25 03:06:41;;;;;;;186.52;48.72;;;6.10;99.90;;;;;;5070143;28;20037;-78
2022/12/25 03:07:58;;;;;;;159.85;45.78;;;6.40;99.90;;;;;;5069346;28;20114;-81
2022/12/25 03:16:49;;;;;;;131.48;43.00;;;6.40;99.90;;;;;;5064788;28;20147;-83
2022/12/25 03:17:06;;;;;;;152.18;48.50;;;6.40;99.90;;;;;;5068986;28;20044;-85
2022/12/25 03:29:08;;;;;;;146.40;44.17;;;6.50;99.90;;;;;;5093917;28;20523;-84
2022/12/25 03:32:08;;;;;;;143.98;46.83;;;6.60;99.90;;;;;;5090159;28;20487;-80
2022/12/25 03:35:24;;;;;;;144.75;44.22;;;6.60;99.90;;;;;;5071726;28;20059;-79
2022/12/25 04:37:36;;;;;;;149.38;47.90;;;7.50;99.90;;;;;;5060921;28;20052;-79
2022/12/25 04:40:22;;;;;;;159.07;49.67;;;7.60;99.90;;;;;;5072003;28;20052;-80
2022/12/25 04:43:09;;;;;;;168.90;51.13;;;7.60;99.90;;;;;;5089316;28;20044;-80
2022/12/25 04:45:57;;;;;;;132.65;44.55;;;7.60;99.90;;;;;;5071367;28;20088;-79
2022/12/25 04:48:43;;;;;;;147.27;45.40;;;7.70;99.90;;;;;;5074098;28;20044;-85
2022/12/25 04:51:29;;;;;;;143.02;44.58;;;7.70;99.90;;;;;;5090712;28;20051;-85
2022/12/25 04:54:15;;;;;;;159.77;47.85;;;7.80;99.90;;;;;;5073204;28;20044;-75
2022/12/25 04:57:02;;;;;;;150.98;47.17;;;7.80;99.90;;;;;;5069611;28;20044;-78
2022/12/25 04:59:48;;;;;;;137.90;44.10;;;7.80;99.90;;;;;;5070290;28;20048;-82
2022/12/25 05:02:34;;;;;;;132.35;43.30;;;7.80;99.90;;;;;;5071353;28;20497;-81
2022/12/25 05:05:20;;;;;;;132.40;40.83;;;7.90;99.90;;;;;;5088726;28;20782;-85
2022/12/25 05:08:06;;;;;;;136.80;41.65;;;7.90;99.90;;;;;;5076601;28;20075;-82
2022/12/25 05:10:52;;;;;;;125.40;41.35;;;8.00;99.90;;;;;;5096477;28;20048;-86
2022/12/25 05:13:39;;;;;;;126.60;42.85;;;8.00;99.90;;;;;;5091129;28;20500;-76
2022/12/25 05:16:25;;;;;;;144.27;42.10;;;8.00;99.90;;;;;;5074183;28;20040;-78
2022/12/25 05:19:12;;;;;;;136.52;42.90;;;8.00;99.90;;;;;;5090421;28;20056;-79
2022/12/25 05:21:58;;;;;;;131.55;42.08;;;8.00;99.90;;;;;;5092582;28;20059;-80
2022/12/25 05:24:44;;;;;;;139.55;40.55;;;8.00;99.90;;;;;;5078140;28;20055;-78
2022/12/25 05:27:30;;;;;;;116.65;39.15;;;8.00;99.90;;;;;;5074795;28;20094;-78
2022/12/25 05:30:16;;;;;;;122.07;41.25;;;8.00;99.90;;;;;;5075006;28;20062;-76
2022/12/25 05:33:03;;;;;;;143.50;43.45;;;8.00;99.90;;;;;;5077931;28;20059;-81
2022/12/25 05:35:49;;;;;;;123.53;39.35;;;8.00;99.90;;;;;;5092908;28;20502;-84
2022/12/25 05:38:36;;;;;;;116.40;40.05;;;8.00;99.90;;;;;;5073657;28;20052;-81
2022/12/25 05:41:22;;;;;;;121.93;41.13;;;8.00;99.90;;;;;;5095452;28;20109;-83
2022/12/25 05:44:08;;;;;;;132.80;43.53;;;8.00;99.90;;;;;;5075311;28;20063;-79
2022/12/25 05:46:54;;;;;;;129.10;40.58;;;8.00;99.90;;;;;;5075994;28;20044;-83
2022/12/25 05:49:41;;;;;;;134.25;41.88;;;8.00;99.90;;;;;;5103300;28;20082;-78
2022/12/25 05:52:32;;;;;;;118.22;39.72;;;8.00;99.90;;;;;;5075870;28;20056;-79
2022/12/25 05:55:18;;;;;;;123.55;44.20;;;7.90;99.90;;;;;;5074219;28;20059;-84
2022/12/25 05:58:05;;;;;;;120.85;41.58;;;7.90;99.90;;;;;;5069165;28;20060;-77
2022/12/25 06:00:51;;;;;;;125.63;41.42;;;8.00;99.90;;;;;;5073449;28;20488;-81
2022/12/25 06:03:38;;;;;;;113.50;39.97;;;8.00;99.90;;;;;;5077779;28;20052;-78
2022/12/25 06:06:24;;;;;;;103.35;37.85;;;8.00;99.90;;;;;;5092340;28;20098;-83
2022/12/25 06:09:12;;;;;;;110.00;39.25;;;7.90;99.90;;;;;;5091214;28;20138;-80
2022/12/25 06:11:58;;;;;;;103.82;38.80;;;8.00;99.90;;;;;;5082307;28;20040;-77
2022/12/25 06:14:44;;;;;;;112.35;40.75;;;7.90;99.90;;;;;;5092883;28;20052;-80
2022/12/25 06:17:30;;;;;;;103.13;38.00;;;7.90;99.90;;;;;;5091481;28;20051;-77
2022/12/25 06:20:17;;;;;;;108.75;38.88;;;7.90;99.90;;;;;;5073404;28;20048;-76
2022/12/25 06:23:03;;;;;;;108.53;39.90;;;8.00;99.90;;;;;;5073989;28;20101;-78
2022/12/25 06:25:49;;;;;;;102.28;38.15;;;8.10;99.90;;;;;;5097208;28;20052;-77
2022/12/25 06:28:35;;;;;;;109.38;40.47;;;8.00;99.90;;;;;;5086749;28;20058;-77
2022/12/25 06:31:22;;;;;;;114.22;39.65;;;8.00;99.90;;;;;;5073406;28;20518;-79
2022/12/25 06:34:09;;;;;;;114.82;38.90;;;8.00;99.90;;;;;;5072392;28;20500;-81
2022/12/25 06:36:55;;;;;;;98.88;38.20;;;8.10;99.90;;;;;;5091164;28;20076;-82
2022/12/25 06:39:41;;;;;;;113.72;38.80;;;8.00;99.90;;;;;;5090464;28;20126;-82
2022/12/25 06:42:27;;;;;;;116.90;40.78;;;8.10;99.90;;;;;;5091279;28;20067;-83
2022/12/25 06:45:14;;;;;;;112.60;41.45;;;8.10;99.90;;;;;;5079050;28;20056;-77
2022/12/25 06:48:00;;;;;;;119.38;40.83;;;8.00;99.90;;;;;;5073451;28;20044;-82
2022/12/25 06:50:47;;;;;;;122.97;42.20;;;8.00;99.90;;;;;;5091499;28;20461;-83
2022/12/25 06:53:33;;;;;;;120.80;40.00;;;8.00;99.90;;;;;;5073637;28;20412;-81
2022/12/25 06:56:23;;;;;;;109.10;38.13;;;8.00;99.90;;;;;;5093090;28;20080;-78
2022/12/25 06:59:10;;;;;;;113.10;39.80;;;8.00;99.90;;;;;;5092026;28;20510;-77
2022/12/25 07:01:56;;;;;;;113.75;38.35;;;8.00;99.90;;;;;;5092543;28;20521;-82
2022/12/25 07:04:43;;;;;;;115.28;40.58;;;8.00;99.90;;;;;;5097812;28;20055;-80
2022/12/25 07:07:29;;;;;;;117.55;40.65;;;8.00;99.90;;;;;;5070594;28;20056;-85
2022/12/25 07:10:15;;;;;;;123.32;41.92;;;8.00;99.90;;;;;;5103314;28;20047;-80
2022/12/25 07:13:01;;;;;;;117.90;40.95;;;8.00;99.90;;;;;;5095739;28;20079;-76
2022/12/25 07:15:58;;;;;;;111.07;38.38;;;8.00;99.90;;;;;;5074823;28;20039;-80
2022/12/25 07:18:44;;;;;;;126.78;41.30;;;8.00;99.90;;;;;;5081734;28;20067;-83
2022/12/25 07:21:30;;;;;;;119.28;39.80;;;8.00;99.90;;;;;;5079450;28;20048;-80
2022/12/25 07:24:18;;;;;;;114.63;39.65;;;8.00;99.90;;;;;;5073088;28;20058;-82
2022/12/25 07:27:04;;;;;;;99.80;38.10;;;8.00;99.90;;;;;;5092106;28;20496;-85
2022/12/25 07:29:51;;;;;;;112.80;40.38;;;7.90;99.90;;;;;;5073315;28;20052;-85
2022/12/25 07:32:37;;;;;;;116.63;40.40;;;8.00;99.90;;;;;;5058293;28;20131;-85
2022/12/25 07:35:23;;;;;;;102.55;37.08;;;8.00;99.90;;;;;;5089562;28;20117;-85
2022/12/25 07:38:09;;;;;;;119.30;38.55;;;8.00;99.90;;;;;;5074238;28;20472;-84
2022/12/25 07:40:55;;;;;;;112.70;39.33;;;7.90;99.90;;;;;;5073403;28;20055;-83
2022/12/25 07:43:41;;;;;;;124.63;40.95;;;8.00;99.90;;;;;;5071180;28;20484;-85
2022/12/25 07:46:28;;;;;;;102.75;38.47;;;7.90;99.90;;;;;;5089027;28;20040;-85
2022/12/25 07:49:14;;;;;;;107.60;38.70;;;7.90;99.90;;;;;;5063947;28;20048;-80
2022/12/25 07:52:00;;;;;;;113.00;37.92;;;8.00;99.90;;;;;;5078639;28;20052;-84
2022/12/25 07:54:46;;;;;;;101.97;35.90;;;8.00;99.90;;;;;;5071928;28;20055;-76
2022/12/25 07:57:34;;;;;;;105.03;38.47;;;8.00;99.90;;;;;;5091565;28;20403;-81
2022/12/25 08:00:21;;;;;;;108.60;39.25;;;8.00;99.90;;;;;;5057596;28;20056;-85
2022/12/25 08:03:07;;;;;;;109.22;37.15;;;8.00;99.90;;;;;;5090447;28;20113;-84
2022/12/25 08:05:53;;;;;;;99.13;35.80;;;8.00;99.90;;;;;;5070512;28;20056;-81
2022/12/25 08:08:40;;;;;;;104.28;39.22;;;8.00;99.90;;;;;;5088918;28;20055;-85
2022/12/25 08:11:26;;;;;;;89.22;36.08;;;8.00;99.90;;;;;;5088878;28;20043;-82
2022/12/25 08:14:13;;;;;;;99.93;39.40;;;8.10;99.90;;;;;;5088643;28;20056;-84
2022/12/25 08:16:59;;;;;;;120.43;39.28;;;8.10;99.90;;;;;;5075045;28;20040;-82
2022/12/25 08:19:45;;;;;;;90.32;33.75;;;8.10;99.90;;;;;;5088911;28;20491;-78
2022/12/25 08:22:31;;;;;;;98.05;35.50;;;8.10;99.90;;;;;;5071106;28;20048;-84
2022/12/25 08:25:18;;;;;;;92.43;35.42;;;8.10;99.90;;;;;;5081148;28;20068;-77
2022/12/25 08:28:04;;;;;;;87.40;33.58;;;8.20;99.90;;;;;;5073132;28;20079;-85
2022/12/25 08:30:50;;;;;;;85.63;34.17;;;8.20;99.90;;;;;;5089507;28;20059;-79
2022/12/25 08:33:37;;;;;;;80.97;33.80;;;8.20;99.90;;;;;;5074638;28;20102;-78
2022/12/25 08:36:23;;;;;;;82.03;34.85;;;8.20;99.90;;;;;;5071533;28;20503;-78
2022/12/25 08:39:10;;;;;;;76.75;32.30;;;8.20;99.90;;;;;;5071458;28;20068;-83
2022/12/25 08:41:56;;;;;;;81.65;31.33;;;8.20;99.90;;;;;;5089895;28;20427;-82
2022/12/25 08:44:42;;;;;;;74.22;31.60;;;8.30;99.90;;;;;;5071230;28;20476;-77
2022/12/25 08:47:28;;;;;;;75.15;31.00;;;8.20;99.90;;;;;;5071367;28;20052;-77
2022/12/25 08:50:14;;;;;;;73.15;30.90;;;8.30;99.90;;;;;;5090453;28;20075;-85
2022/12/25 08:53:00;;;;;;;77.72;29.65;;;8.20;99.90;;;;;;5076229;28;20051;-77
2022/12/25 08:55:46;;;;;;;82.32;31.02;;;8.20;99.90;;;;;;5074197;28;20052;-76
2022/12/25 08:58:33;;;;;;;82.93;29.40;;;8.20;99.90;;;;;;5075614;28;20131;-78
2022/12/25 09:01:19;;;;;;;68.53;29.05;;;8.20;99.90;;;;;;5094000;28;20131;-79
2022/12/25 09:04:05;;;;;;;67.32;27.58;;;8.20;99.90;;;;;;5093613;28;20054;-84
2022/12/25 09:06:51;;;;;;;64.13;26.67;;;8.20;99.90;;;;;;5075637;28;20044;-86
2022/12/25 09:09:38;;;;;;;65.15;25.35;;;8.20;99.90;;;;;;5095385;28;20059;-82
2022/12/25 09:12:24;;;;;;;57.28;24.27;;;8.20;99.90;;;;;;5077675;28;20546;-76
2022/12/25 09:15:10;;;;;;;58.45;24.90;;;8.10;99.90;;;;;;5097624;28;20044;-78
2022/12/25 09:17:56;;;;;;;60.33;25.70;;;8.20;99.90;;;;;;5079858;28;20056;-85
2022/12/25 09:20:43;;;;;;;57.08;24.58;;;8.10;99.90;;;;;;5092779;28;20048;-84
2022/12/25 09:23:29;;;;;;;57.85;23.95;;;8.10;99.90;;;;;;5093916;28;20426;-77
2022/12/25 09:26:17;;;;;;;49.00;23.48;;;8.10;99.90;;;;;;5075615;28;20139;-83
2022/12/25 09:29:03;;;;;;;57.17;23.90;;;8.20;99.90;;;;;;5082497;28;20055;-85
2022/12/25 09:31:49;;;;;;;52.22;21.23;;;8.10;99.90;;;;;;5062426;28;20074;-80
2022/12/25 09:34:36;;;;;;;46.33;22.60;;;8.20;99.90;;;;;;5075913;28;20040;-78
2022/12/25 09:37:22;;;;;;;48.60;21.60;;;8.10;99.90;;;;;;5092453;28;20052;-83
2022/12/25 09:40:17;;;;;;;48.88;20.98;;;8.20;99.90;;;;;;5075112;28;20166;-79
2022/12/25 09:43:04;;;;;;;45.58;20.42;;;8.20;99.90;;;;;;5084341;28;20048;-79
2022/12/25 09:45:50;;;;;;;48.25;20.50;;;8.20;99.90;;;;;;5059801;28;20043;-78
2022/12/25 09:48:44;;;;;;;43.80;20.27;;;8.20;99.90;;;;;;5076896;28;20052;-82
2022/12/25 09:51:36;;;;;;;48.80;19.98;;;8.20;99.90;;;;;;5095868;28;20117;-80
2022/12/25 09:54:38;;;;;;;61.08;23.17;;;8.20;99.90;;;;;;5091735;28;20048;-79
2022/12/25 09:57:25;;;;;;;42.33;19.50;;;8.30;99.90;;;;;;5074354;28;20100;-80
2022/12/25 10:00:17;;;;;;;45.35;20.58;;;8.30;99.90;;;;;;5092652;28;20055;-77
2022/12/25 10:03:18;;;;;;;41.92;19.38;;;8.30;99.90;;;;;;5102442;28;20112;-79
2022/12/25 10:06:44;;;;;;;43.25;19.55;;;8.30;99.90;;;;;;5098103;28;20109;-81
2022/12/25 10:09:56;;;;;;;45.35;18.58;;;8.40;99.90;;;;;;5095101;28;20048;-83
2022/12/25 10:13:07;;;;;;;37.78;17.02;;;8.30;99.90;;;;;;5091465;28;20089;-83
2022/12/25 10:16:32;;;;;;;39.58;18.00;;;8.30;99.90;;;;;;5092345;28;20055;-81
2022/12/25 10:19:28;;;;;;;43.03;17.55;;;8.30;99.90;;;;;;5074955;28;20059;-78
2022/12/25 10:22:39;;;;;;;37.53;16.85;;;8.30;99.90;;;;;;5091748;28;20504;-82
2022/12/25 10:25:25;;;;;;;45.08;17.95;;;8.30;99.90;;;;;;5095639;28;20059;-84
2022/12/25 10:28:18;;;;;;;47.00;18.20;;;8.40;99.90;;;;;;5078817;28;20047;-84
2022/12/25 10:31:18;;;;;;;41.78;17.40;;;8.40;99.90;;;;;;5093221;28;20060;-86
2022/12/25 10:34:05;;;;;;;39.83;16.75;;;8.30;99.90;;;;;;5085690;28;20060;-85
2022/12/25 10:36:52;;;;;;;38.83;16.92;;;8.40;99.90;;;;;;5087199;28;20051;-78
2022/12/25 10:39:38;;;;;;;33.80;16.77;;;8.30;99.90;;;;;;5093498;28;20135;-82
2022/12/25 10:42:41;;;;;;;35.75;17.00;;;8.30;99.90;;;;;;5093007;28;20056;-82
2022/12/25 10:45:27;;;;;;;38.78;17.40;;;8.40;99.90;;;;;;5099493;28;20048;-83
2022/12/25 10:48:27;;;;;;;36.00;16.05;;;8.40;99.90;;;;;;5091621;28;20044;-84
2022/12/25 10:51:24;;;;;;;31.73;15.38;;;8.40;99.90;;;;;;5091731;28;20081;-81
2022/12/25 10:54:33;;;;;;;34.53;14.30;;;8.50;99.90;;;;;;5072715;28;20510;-83
2022/12/25 10:57:22;;;;;;;25.10;13.48;;;8.50;99.90;;;;;;5091274;28;20048;-83
2022/12/25 11:00:22;;;;;;;29.95;13.80;;;8.50;99.90;;;;;;5090943;28;20087;-83
2022/12/25 11:03:24;;;;;;;29.25;14.10;;;8.50;99.90;;;;;;5095873;28;20048;-76
2022/12/25 11:06:29;;;;;;;24.83;14.05;;;8.50;99.90;;;;;;5090629;28;20051;-84
2022/12/25 11:09:16;;;;;;;26.95;13.20;;;8.50;99.90;;;;;;5073169;28;20047;-82
2022/12/25 11:12:02;;;;;;;29.15;13.23;;;8.50;99.90;;;;;;5073488;28;20574;-81
2022/12/25 11:15:40;;;;;;;27.70;13.10;;;8.60;99.90;;;;;;5092347;28;20097;-81
2022/12/25 11:18:32;;;;;;;27.40;13.02;;;8.60;99.90;;;;;;5097536;28;20056;-83
2022/12/25 11:21:26;;;;;;;26.42;12.68;;;8.60;99.90;;;;;;5099625;28;20063;-76
2022/12/25 11:24:21;;;;;;;25.33;11.80;;;8.70;99.90;;;;;;5071843;28;20131;-79
2022/12/25 11:27:29;;;;;;;23.60;12.77;;;8.60;99.90;;;;;;5076528;28;20086;-81
2022/12/25 11:30:15;;;;;;;24.40;12.13;;;8.60;99.90;;;;;;5091043;28;20466;-81
2022/12/25 11:33:06;;;;;;;22.02;11.80;;;8.60;99.90;;;;;;5090554;28;20491;-80
2022/12/25 11:35:54;;;;;;;23.83;11.38;;;8.70;99.90;;;;;;5097435;28;20086;-79
2022/12/25 11:38:40;;;;;;;23.63;11.52;;;8.70;99.90;;;;;;5091002;28;20380;-77
2022/12/25 11:41:31;;;;;;;21.40;11.65;;;8.70;99.90;;;;;;5072801;28;20149;-80
2022/12/25 11:44:42;;;;;;;28.35;13.05;;;8.70;99.90;;;;;;5090112;28;20139;-78
2022/12/25 11:48:02;;;;;;;22.73;10.10;;;8.70;99.90;;;;;;5072103;28;20051;-78
2022/12/25 11:50:51;;;;;;;20.23;10.75;;;8.70;99.90;;;;;;5072903;28;20044;-84
2022/12/25 11:53:41;;;;;;;19.27;10.13;;;8.70;99.90;;;;;;5076522;28;20048;-82
2022/12/25 11:56:29;;;;;;;17.40;10.13;;;8.70;99.90;;;;;;5073326;28;20056;-80
2022/12/25 11:59:29;;;;;;;19.77;10.10;;;8.70;99.90;;;;;;5077881;28;20055;-79
2022/12/25 12:02:28;;;;;;;21.67;9.95;;;8.70;99.90;;;;;;5072488;28;20556;-80
2022/12/25 12:05:28;;;;;;;19.98;10.13;;;8.70;99.90;;;;;;5090001;28;20052;-77
2022/12/25 12:08:14;;;;;;;17.30;9.95;;;8.80;99.90;;;;;;5091777;28;20143;-82
2022/12/25 12:11:17;;;;;;;14.07;9.02;;;8.70;99.90;;;;;;5063069;28;20052;-78
2022/12/25 12:14:25;;;;;;;16.13;8.88;;;8.80;99.90;;;;;;5072958;28;20530;-81
2022/12/25 12:17:13;;;;;;;16.23;8.30;;;8.90;99.90;;;;;;5071761;28;20055;-81
2022/12/25 12:20:26;;;;;;;19.25;8.38;;;8.80;99.90;;;;;;5051830;28;20049;-78
2022/12/25 12:23:15;;;;;;;16.83;8.90;;;8.80;99.90;;;;;;5070013;28;20167;-77
2022/12/25 12:26:03;;;;;;;14.50;8.18;;;8.90;99.90;;;;;;5055385;28;20459;-85
2022/12/25 12:28:54;;;;;;;17.67;8.85;;;8.90;99.90;;;;;;5079561;28;20052;-79
2022/12/25 12:31:46;;;;;;;18.52;8.50;;;8.90;99.90;;;;;;5074108;28;20135;-78
2022/12/25 12:34:42;;;;;;;13.13;7.53;;;8.90;99.90;;;;;;5055728;28;20052;-79
2022/12/25 12:37:54;;;;;;;15.35;7.28;;;9.00;99.90;;;;;;5074217;28;20049;-83
2022/12/25 12:40:43;;;;;;;12.48;7.57;;;9.00;99.90;;;;;;5065076;28;20056;-81
2022/12/25 12:43:54;;;;;;;15.02;7.75;;;9.00;99.90;;;;;;5058229;28;20049;-83
2022/12/25 12:46:53;;;;;;;22.35;9.15;;;8.90;99.90;;;;;;5061019;28;20057;-82
2022/12/25 12:49:40;;;;;;;15.07;8.15;;;9.00;99.90;;;;;;5065346;28;20052;-78
2022/12/25 12:52:37;;;;;;;15.60;8.35;;;9.00;99.90;;;;;;5074564;28;20044;-79
2022/12/25 12:55:31;;;;;;;17.15;9.52;;;9.00;99.90;;;;;;5072063;28;20048;-78
2022/12/25 12:58:34;;;;;;;17.20;8.80;;;9.00;99.90;;;;;;5073728;28;20446;-82
2022/12/25 13:01:26;;;;;;;16.42;8.77;;;9.00;99.90;;;;;;5074682;28;20053;-83
2022/12/25 13:05:00;;;;;;;15.45;8.57;;;8.90;99.90;;;;;;5074597;28;20471;-87
2022/12/25 13:08:01;;;;;;;16.58;8.98;;;8.90;99.90;;;;;;5079985;28;20544;-79
2022/12/25 13:10:50;;;;;;;18.30;9.32;;;8.90;99.90;;;;;;5058709;28;20048;-79
2022/12/25 13:13:40;;;;;;;19.27;9.32;;;8.90;99.90;;;;;;5041928;28;20040;-77
2022/12/25 13:16:37;;;;;;;24.05;10.63;;;8.90;99.90;;;;;;5073882;28;20102;-77
2022/12/25 13:19:26;;;;;;;17.15;10.02;;;8.90;99.90;;;;;;5088305;28;20055;-81
2022/12/25 13:22:29;;;;;;;24.10;10.90;;;8.90;99.90;;;;;;5075506;28;20056;-83
2022/12/25 13:25:24;;;;;;;21.92;9.75;;;8.90;99.90;;;;;;5094120;28;20434;-83
2022/12/25 13:28:13;;;;;;;18.00;10.55;;;8.90;99.90;;;;;;5076581;28;20105;-81
2022/12/25 13:31:12;;;;;;;20.50;11.57;;;8.90;99.90;;;;;;5074867;28;20048;-80
2022/12/25 13:34:17;;;;;;;21.40;10.40;;;8.90;99.90;;;;;;5093620;28;20064;-83
2022/12/25 13:37:09;;;;;;;20.02;10.00;;;8.90;99.90;;;;;;5065058;28;20404;-84
2022/12/25 13:39:57;;;;;;;20.20;11.05;;;8.90;99.90;;;;;;5098733;28;20079;-80
2022/12/25 13:42:46;;;;;;;19.85;10.32;;;8.90;99.90;;;;;;5080713;28;20050;-82
2022/12/25 13:45:34;;;;;;;21.08;9.75;;;8.80;99.90;;;;;;5080988;28;20048;-78
2022/12/25 13:48:22;;;;;;;21.40;10.27;;;8.80;99.90;;;;;;5092606;28;20044;-79
2022/12/25 13:51:14;;;;;;;22.55;9.77;;;8.80;99.90;;;;;;5091493;28;20077;-78
2022/12/25 13:54:06;;;;;;;19.55;9.15;;;8.80;99.90;;;;;;5073283;28;20052;-78
2022/12/25 13:56:55;;;;;;;16.65;10.50;;;8.80;99.90;;;;;;5073822;28;20070;-80
2022/12/25 13:59:43;;;;;;;18.65;9.32;;;8.80;99.90;;;;;;5092695;28;20044;-77
2022/12/25 14:02:34;;;;;;;19.65;10.55;;;8.80;99.90;;;;;;5093260;28;20036;-78
2022/12/25 14:05:22;;;;;;;23.52;9.90;;;8.80;99.90;;;;;;5083266;28;20047;-78
2022/12/25 14:08:25;;;;;;;22.02;9.82;;;8.80;99.90;;;;;;5092633;28;20036;-79
2022/12/25 14:11:15;;;;;;;20.80;9.93;;;8.80;99.90;;;;;;5091810;28;20047;-76
2022/12/25 14:14:06;;;;;;;21.17;10.90;;;8.80;99.90;;;;;;5092660;28;20060;-78
2022/12/25 14:16:56;;;;;;;25.00;9.52;;;8.80;99.90;;;;;;5092308;28;20048;-78
2022/12/25 14:19:42;;;;;;;17.95;9.75;;;8.70;99.90;;;;;;5073491;28;20059;-78
2022/12/25 14:22:30;;;;;;;18.65;10.18;;;8.70;99.90;;;;;;5073644;28;20048;-78
2022/12/25 14:25:17;;;;;;;19.25;11.10;;;8.70;99.90;;;;;;5095826;28;20052;-89
2022/12/25 14:28:08;;;;;;;18.85;10.00;;;8.80;99.90;;;;;;5077672;28;20105;-80
2022/12/25 14:30:54;;;;;;;24.00;10.60;;;8.80;99.90;;;;;;5061571;28;20096;-79
2022/12/25 14:33:41;;;;;;;21.33;10.93;;;8.80;99.90;;;;;;5091988;28;20100;-77
2022/12/25 14:36:29;;;;;;;20.35;10.18;;;8.80;99.90;;;;;;5091553;28;20048;-81
2022/12/25 14:39:34;;;;;;;23.17;10.40;;;8.80;99.90;;;;;;5073813;28;20044;-80
2022/12/25 14:42:26;;;;;;;20.67;10.23;;;8.80;99.90;;;;;;5097360;28;20048;-85
2022/12/25 14:45:26;;;;;;;18.20;10.00;;;8.80;99.90;;;;;;5088672;28;20048;-82
2022/12/25 14:48:24;;;;;;;18.95;10.38;;;8.80;99.90;;;;;;5075868;28;20060;-77
2022/12/25 14:51:17;;;;;;;19.05;10.20;;;8.70;99.90;;;;;;5075331;28;20446;-79
2022/12/25 14:54:05;;;;;;;24.48;10.85;;;8.70;99.90;;;;;;5103605;28;20052;-83
2022/12/25 14:56:54;;;;;;;19.27;10.23;;;8.80;99.90;;;;;;5083310;28;20052;-78
2022/12/25 14:59:41;;;;;;;21.80;10.63;;;8.70;99.90;;;;;;5079227;28;20105;-86
2022/12/25 15:02:38;;;;;;;25.30;10.93;;;8.70;99.90;;;;;;5075376;28;20078;-77
2022/12/25 15:05:30;;;;;;;20.10;11.15;;;8.70;99.90;;;;;;5085761;28;20052;-78
2022/12/25 15:08:20;;;;;;;32.92;14.48;;;8.70;99.90;;;;;;5084982;28;20044;-78
2022/12/25 15:11:07;;;;;;;26.42;12.25;;;8.70;99.90;;;;;;5072848;28;20085;-81
2022/12/25 15:13:54;;;;;;;25.02;11.45;;;8.70;99.90;;;;;;5090314;28;20048;-77
2022/12/25 15:16:43;;;;;;;27.63;13.45;;;8.60;99.90;;;;;;5091497;28;20048;-81
2022/12/25 15:19:36;;;;;;;28.10;11.50;;;8.60;99.90;;;;;;5095488;28;20470;-85
2022/12/25 15:22:22;;;;;;;22.23;11.60;;;8.60;99.90;;;;;;5092644;28;20044;-79
2022/12/25 15:25:15;;;;;;;23.10;11.18;;;8.60;99.90;;;;;;5090403;28;20139;-76
2022/12/25 15:28:01;;;;;;;31.55;14.32;;;8.60;99.90;;;;;;5073045;28;20055;-77
2022/12/25 15:30:48;;;;;;;25.40;12.77;;;8.60;99.90;;;;;;5090934;28;20507;-77
2022/12/25 15:33:34;;;;;;;22.85;11.45;;;8.60;99.90;;;;;;5058225;28;20052;-80
2022/12/25 15:36:22;;;;;;;24.10;10.60;;;8.60;99.90;;;;;;5090547;28;20052;-86
2022/12/25 15:39:08;;;;;;;23.42;11.68;;;8.50;99.90;;;;;;5092767;28;20044;-79
2022/12/25 15:42:09;;;;;;;28.20;11.82;;;8.50;99.90;;;;;;5090659;28;20052;-79
2022/12/25 15:44:56;;;;;;;25.73;12.52;;;8.50;99.90;;;;;;5071036;28;20067;-82
2022/12/25 15:47:42;;;;;;;28.83;13.07;;;8.50;99.90;;;;;;5090406;28;20051;-79
2022/12/25 15:50:29;;;;;;;31.17;11.48;;;8.50;99.90;;;;;;5077064;28;20056;-87
2022/12/25 15:53:15;;;;;;;25.85;11.80;;;8.40;99.90;;;;;;5083319;28;20060;-88
2022/12/25 15:56:01;;;;;;;21.52;11.15;;;8.40;99.90;;;;;;5095097;28;20135;-79
2022/12/25 15:58:47;;;;;;;21.92;10.90;;;8.40;99.90;;;;;;5073846;28;20054;-76
2022/12/25 16:01:33;;;;;;;25.20;11.18;;;8.40;99.90;;;;;;5070912;28;20052;-77
2022/12/25 16:04:21;;;;;;;20.38;11.07;;;8.40;99.90;;;;;;5090804;28;20353;-78
2022/12/25 16:07:16;;;;;;;24.85;11.40;;;8.40;99.90;;;;;;5090217;28;20051;-78
2022/12/25 16:10:04;;;;;;;28.20;12.77;;;8.40;99.90;;;;;;5089055;28;20589;-81
2022/12/25 16:12:50;;;;;;;19.38;11.07;;;8.30;99.90;;;;;;5097071;28;20044;-78